El Embrujo Airport

Airport
ICAO code: 
SKPV
IATA Code: 
PVA
Summary
ICAO Region: 
CARSAM
Territory: 
Location: 
Providencia, Archipelago of San Andres, Providencia and Santa Catalina
Serving: 
Providencia
Elevation: 
29 ft
Coordinates: 
Aerial View: 
13° 21' 31.823" N, 81° 21' 32.968" W
Metar
Observation
SKPV 022200Z 01020KT 9999 FEW017 OVC200 28/24 Q1012 RMK A2990
Station
Providencia Isla / El Embrujo
Date/Time
2021-12-02 22:00:00
Wind direction
10°
Wind speed
20 kts
Lowest cloud amount
few clouds
Temperature
28°C
Dew point
24°C
Humidity
78%
QNH
1012 hPa
Weather condition
n/a

El Embrujo Airport is an airport serving Providencia Island, Colombia.

Climatology

Tropical monsoon climate (Köppen climate classification Am)

Runways

Designator Length Width Surface Rops
17/35 1168 15 ASP No/No
Airport map: 
Aerial View: 

SKYbrary Partners:

Safety knowledge contributed by: